Time;durP1;ratioP1;P1;durP2;ratioP2;P2;SDS_P1;SDS_P2;PMS_P1;PMS_P2;Temp;Humidity;BMP_temperature;BMP_pressure;BME280_temperature;BME280_humidity;BME280_pressure;Samples;Min_cycle;Max_cycle;Signal;HPM_P1;HPM_P2
2022/01/29 00:00:43;;;;;;;9.25;4.72;;;;;;;6.76;87.30;102988.53;5034096;28;117104;-36
2022/01/29 00:03:09;;;;;;;5.43;2.72;;;;;;;6.80;87.82;102990.28;5035255;27;96764;-36
2022/01/29 00:05:35;;;;;;;5.43;2.83;;;;;;;6.69;87.39;102959.00;5035124;28;97948;-35
2022/01/29 00:08:00;;;;;;;17.52;4.82;;;;;;;6.69;87.53;102951.81;5034714;28;102007;-36
2022/01/29 00:10:26;;;;;;;5.43;3.30;;;;;;;6.67;87.77;102950.94;5035298;27;96631;-36
2022/01/29 00:12:51;;;;;;;7.57;2.40;;;;;;;6.72;87.37;102959.88;5034999;27;96895;-36
2022/01/29 00:15:16;;;;;;;3.75;2.13;;;;;;;6.68;87.66;102939.28;5032754;28;129313;-35
2022/01/29 00:17:42;;;;;;;6.18;2.60;;;;;;;6.80;87.88;102963.34;5035338;27;97792;-35
2022/01/29 00:20:08;;;;;;;8.52;3.88;;;;;;;6.68;87.45;102931.19;5035110;27;96455;-36
2022/01/29 00:22:34;;;;;;;13.43;3.30;;;;;;;6.89;87.23;102956.06;5033543;28;97053;-36
2022/01/29 00:24:59;;;;;;;11.90;3.72;;;;;;;6.89;87.55;102947.97;5034434;27;97390;-36
2022/01/29 00:27:27;;;;;;;6.53;3.03;;;;;;;6.83;87.67;102934.59;5034809;27;97322;-36
2022/01/29 00:29:54;;;;;;;7.93;2.97;;;;;;;6.90;87.29;102941.69;5034944;27;96612;-36
2022/01/29 00:32:19;;;;;;;7.78;3.13;;;;;;;6.90;87.90;102942.59;5033655;28;96851;-36
2022/01/29 00:34:44;;;;;;;5.80;2.88;;;;;;;6.68;88.18;102892.59;5033795;27;120767;-36
2022/01/29 00:37:10;;;;;;;10.00;4.03;;;;;;;6.86;87.84;102918.41;5033550;28;126266;-36
2022/01/29 00:39:36;;;;;;;6.93;3.53;;;;;;;6.78;88.48;102910.41;5035020;27;96511;-36
2022/01/29 00:42:01;;;;;;;13.20;3.20;;;;;;;6.80;88.58;102912.19;5033876;28;96811;-36
2022/01/29 00:44:27;;;;;;;11.57;2.88;;;;;;;6.86;88.63;102919.28;5034704;28;98902;-36
2022/01/29 00:46:52;;;;;;;7.93;3.30;;;;;;;6.90;88.10;102928.22;5033678;28;124083;-36
2022/01/29 00:49:17;;;;;;;3.60;2.28;;;;;;;6.81;88.49;102900.47;5034603;27;96715;-36
2022/01/29 00:51:42;;;;;;;8.48;2.80;;;;;;;6.91;89.13;102917.44;5034768;27;96804;-36
2022/01/29 00:54:08;;;;;;;6.00;3.05;;;;;;;6.90;88.65;102918.34;5034293;28;103081;-36
2022/01/29 00:56:34;;;;;;;3.75;2.25;;;;;;;6.92;88.74;102919.22;5033668;28;118796;-36
2022/01/29 00:58:59;;;;;;;8.18;2.38;;;;;;;6.67;88.89;102870.13;5034447;27;96475;-36
2022/01/29 01:01:24;;;;;;;2.03;1.55;;;;;;;6.92;89.92;102915.63;5036136;27;96781;-35
2022/01/29 01:03:50;;;;;;;5.45;3.53;;;;;;;6.77;89.56;102882.59;5037160;27;97347;-35
2022/01/29 01:06:16;;;;;;;6.68;2.78;;;;;;;6.89;90.43;102915.66;5036329;28;100889;-36
2022/01/29 01:08:42;;;;;;;7.60;2.90;;;;;;;6.74;90.13;102885.31;5036898;28;96695;-36
2022/01/29 01:11:07;;;;;;;2.15;1.90;;;;;;;6.77;89.79;102882.59;5038400;27;96712;-36
2022/01/29 01:13:33;;;;;;;5.05;2.40;;;;;;;6.81;90.22;102892.41;5037432;27;97351;-36
2022/01/29 01:15:59;;;;;;;4.75;3.20;;;;;;;6.79;89.73;102882.56;5036283;28;100745;-36
2022/01/29 01:18:24;;;;;;;7.47;2.30;;;;;;;6.84;90.13;102887.91;5038144;27;96614;-36
2022/01/29 01:20:50;;;;;;;8.40;2.35;;;;;;;6.85;90.66;102878.91;5038007;27;96859;-36
2022/01/29 01:23:16;;;;;;;2.95;2.00;;;;;;;6.76;90.40;102861.94;5037558;27;97374;-36
2022/01/29 01:25:41;;;;;;;4.85;2.00;;;;;;;6.87;90.59;102869.03;5037758;27;97226;-36
2022/01/29 01:28:07;;;;;;;4.97;2.25;;;;;;;6.84;90.72;102878.03;5037923;28;96665;-36
2022/01/29 01:30:32;;;;;;;4.78;2.55;;;;;;;6.88;90.77;102868.09;5038492;27;96731;-36
2022/01/29 01:33:01;;;;;;;6.95;2.75;;;;;;;6.82;90.65;102858.31;5037493;28;97928;-36
2022/01/29 01:35:32;;;;;;;4.22;2.58;;;;;;;6.84;91.07;102867.25;5035831;28;99076;-36
2022/01/29 01:38:07;;;;;;;3.67;1.73;;;;;;;6.87;90.73;102863.63;5036087;28;96673;-36
2022/01/29 01:40:32;;;;;;;2.58;1.90;;;;;;;6.75;91.13;102846.72;5037803;27;96511;-36
2022/01/29 01:43:01;;;;;;;3.25;1.92;;;;;;;6.83;91.09;102857.38;5037343;28;98621;-36
2022/01/29 01:45:27;;;;;;;2.83;1.85;;;;;;;6.76;91.08;102835.00;5037306;28;97800;-36
2022/01/29 01:47:53;;;;;;;2.90;2.30;;;;;;;6.88;91.42;102868.09;5036119;28;96690;-36
2022/01/29 01:50:20;;;;;;;5.82;2.40;;;;;;;6.79;91.66;102843.06;5037674;27;96899;-36
2022/01/29 01:52:45;;;;;;;5.65;3.28;;;;;;;6.93;91.38;102863.53;5037143;28;97980;-36
2022/01/29 01:55:10;;;;;;;4.80;2.90;;;;;;;6.82;91.41;102842.16;5037654;28;97836;-36
2022/01/29 01:57:36;;;;;;;4.72;2.60;;;;;;;6.83;91.66;102832.25;5037336;27;96628;-36
2022/01/29 02:00:03;;;;;;;6.00;2.65;;;;;;;6.99;91.79;102860.75;5036341;28;116480;-36
2022/01/29 02:02:28;;;;;;;7.32;2.28;;;;;;;6.81;91.98;102819.69;5035305;28;101965;-36
2022/01/29 02:04:55;;;;;;;6.15;3.40;;;;;;;7.00;91.46;102833.78;5036695;27;97317;-36
2022/01/29 02:07:20;;;;;;;5.97;3.08;;;;;;;7.02;91.53;102833.75;5035708;28;96639;-36
2022/01/29 02:09:46;;;;;;;4.22;2.42;;;;;;;7.08;91.32;102846.25;5037472;27;96743;-36
2022/01/29 02:12:12;;;;;;;3.22;2.20;;;;;;;6.97;91.43;102819.47;5036646;27;97887;-36
2022/01/29 02:14:39;;;;;;;4.82;2.78;;;;;;;7.08;91.25;102838.16;5035347;28;98168;-36
2022/01/29 02:17:05;;;;;;;3.92;2.33;;;;;;;7.14;91.66;102840.78;5035668;28;96539;-36
2022/01/29 02:19:30;;;;;;;4.60;2.40;;;;;;;7.04;91.16;102806.81;5036089;28;96846;-36
2022/01/29 02:21:57;;;;;;;4.10;2.33;;;;;;;6.99;91.30;102796.09;5036848;27;97911;-36
2022/01/29 02:24:22;;;;;;;10.00;2.10;;;;;;;7.17;91.79;102816.47;5035364;28;101148;-36
2022/01/29 02:26:48;;;;;;;2.92;2.00;;;;;;;7.19;91.31;102820.03;5036737;28;96637;-36
2022/01/29 02:29:14;;;;;;;5.68;1.80;;;;;;;7.07;91.50;102798.66;5036405;27;97761;-36
2022/01/29 02:31:57;;;;;;;2.10;1.45;;;;;;;7.19;91.37;102815.53;5034958;28;98900;-35
2022/01/29 02:34:23;;;;;;;12.70;2.00;;;;;;;7.08;91.34;102793.28;5035025;28;100742;-35
2022/01/29 02:36:54;;;;;;;3.63;1.98;;;;;;;7.10;91.45;102790.53;5036655;27;96622;-35
2022/01/29 02:39:20;;;;;;;2.78;1.83;;;;;;;7.19;91.81;102804.75;5035482;28;96722;-36
2022/01/29 02:41:46;;;;;;;4.20;2.35;;;;;;;7.19;91.11;102793.97;5035085;28;98859;-36
2022/01/29 02:44:19;;;;;;;3.15;1.83;;;;;;;7.12;91.38;102770.72;5036703;28;97866;-36
2022/01/29 02:49:17;;;;;;;4.60;2.38;;;;;;;7.13;90.88;102769.84;5036642;27;96723;-36
2022/01/29 02:51:48;;;;;;;6.78;2.47;;;;;;;7.26;91.63;102788.50;5034306;28;101004;-36
2022/01/29 02:54:15;;;;;;;6.45;2.40;;;;;;;7.27;91.07;102782.16;5034699;28;100637;-35
2022/01/29 02:56:40;;;;;;;3.63;1.80;;;;;;;7.22;91.18;102767.00;5036154;27;96664;-35
2022/01/29 02:59:05;;;;;;;8.07;2.63;;;;;;;7.28;91.34;102765.09;5036511;27;96771;-36
2022/01/29 03:01:31;;;;;;;6.32;2.90;;;;;;;7.25;91.60;102755.25;5036272;27;97898;-36
2022/01/29 03:03:56;;;;;;;4.18;1.90;;;;;;;7.24;91.33;102756.16;5035452;28;99103;-35
2022/01/29 03:06:22;;;;;;;16.25;2.25;;;;;;;7.28;91.43;102762.41;5035717;28;103064;-36
2022/01/29 03:08:47;;;;;;;4.43;1.92;;;;;;;7.19;91.24;102734.66;5035657;28;116445;-36
2022/01/29 03:11:14;;;;;;;4.03;2.10;;;;;;;7.20;91.62;102731.09;5035788;27;97485;-36
2022/01/29 03:13:40;;;;;;;4.72;2.45;;;;;;;7.16;91.43;102726.66;5035915;27;97796;-36
2022/01/29 03:16:05;;;;;;;12.40;3.22;;;;;;;7.33;91.54;102752.44;5034984;28;111212;-36
2022/01/29 03:18:30;;;;;;;3.58;1.30;;;;;;;7.23;91.73;102722.06;5034285;28;101012;-35
2022/01/29 03:20:56;;;;;;;9.20;1.80;;;;;;;7.36;91.46;102736.19;5034963;28;126299;-35
2022/01/29 03:23:21;;;;;;;7.78;1.92;;;;;;;7.34;91.74;102732.63;5035019;27;107459;-35
2022/01/29 03:25:46;;;;;;;2.58;1.70;;;;;;;7.30;91.43;102722.84;5035866;28;96640;-36
2022/01/29 03:28:11;;;;;;;4.63;2.10;;;;;;;7.39;91.15;102733.47;5035309;27;111267;-36
2022/01/29 03:30:37;;;;;;;3.13;1.67;;;;;;;7.37;91.47;102735.28;5034749;28;126789;-36
2022/01/29 03:33:02;;;;;;;4.10;1.50;;;;;;;7.38;91.83;102721.75;5036049;27;97773;-36
2022/01/29 03:35:28;;;;;;;2.75;1.33;;;;;;;7.42;91.96;102717.22;5036017;28;96648;-36
2022/01/29 03:37:53;;;;;;;6.57;2.70;;;;;;;7.41;91.50;102718.13;5035571;27;101452;-35
2022/01/29 03:40:18;;;;;;;4.93;2.08;;;;;;;7.45;91.77;102726.13;5034943;27;97904;-36
2022/01/29 03:42:59;;;;;;;6.82;2.28;;;;;;;7.35;91.49;102704.78;5035305;27;99154;-36
2022/01/29 03:45:25;;;;;;;4.90;2.10;;;;;;;7.36;91.53;102707.41;5035737;27;96586;-35
2022/01/29 03:47:50;;;;;;;2.65;1.73;;;;;;;7.29;91.70;102681.50;5035845;27;96749;-36
2022/01/29 03:50:15;;;;;;;4.60;2.20;;;;;;;7.45;91.61;102709.06;5034394;28;126532;-36
2022/01/29 03:52:41;;;;;;;5.70;1.45;;;;;;;7.38;91.51;102691.22;5034922;27;99107;-36
2022/01/29 03:55:07;;;;;;;2.35;1.67;;;;;;;7.34;91.62;102685.03;5035604;27;96545;-36
2022/01/29 03:57:32;;;;;;;4.18;1.85;;;;;;;7.51;91.53;102713.44;5035630;28;96791;-36
2022/01/29 03:59:57;;;;;;;4.97;2.05;;;;;;;7.42;92.08;102692.97;5034911;27;106678;-35
2022/01/29 04:02:22;;;;;;;7.18;2.33;;;;;;;7.56;91.43;102706.19;5034426;28;125777;-35
2022/01/29 04:04:48;;;;;;;5.18;1.80;;;;;;;7.45;91.30;102688.38;5033920;28;113673;-36
2022/01/29 04:07:14;;;;;;;3.35;1.70;;;;;;;7.46;91.94;102683.91;5034390;28;117622;-36
2022/01/29 04:09:39;;;;;;;1.98;1.50;;;;;;;7.59;91.61;102695.34;5034846;28;99325;-36
2022/01/29 04:12:05;;;;;;;3.17;1.77;;;;;;;7.54;91.42;102683.75;5034830;27;99618;-36
2022/01/29 04:14:37;;;;;;;4.80;2.30;;;;;;;7.51;91.36;102679.31;5035425;27;96581;-36
2022/01/29 04:17:03;;;;;;;10.57;2.30;;;;;;;7.47;91.45;102669.50;5033870;28;96661;-35
2022/01/29 04:19:29;;;;;;;7.65;1.33;;;;;;;7.60;91.45;102698.00;5033317;28;101138;-36
2022/01/29 04:21:54;;;;;;;2.95;1.60;;;;;;;7.55;91.49;102681.00;5035011;27;97253;-36
2022/01/29 04:24:20;;;;;;;7.40;2.33;;;;;;;7.64;91.40;102691.63;5034690;28;103409;-36
2022/01/29 04:26:45;;;;;;;4.72;1.83;;;;;;;7.52;91.56;102681.06;5034932;27;96801;-35
2022/01/29 04:29:11;;;;;;;1.73;1.17;;;;;;;7.64;91.24;102694.31;5033956;27;99214;-36
2022/01/29 04:34:22;;;;;;;3.25;1.50;;;;;;;7.66;91.41;102691.59;5035309;28;96451;-36
2022/01/29 04:36:47;;;;;;;3.50;1.38;;;;;;;7.57;91.71;102676.47;5033584;28;96858;-35
2022/01/29 04:39:13;;;;;;;4.40;1.80;;;;;;;7.66;91.50;102676.28;5034776;27;97864;-35
2022/01/29 04:41:38;;;;;;;8.70;2.13;;;;;;;7.64;91.28;102672.75;5034616;27;102054;-36
2022/01/29 04:44:04;;;;;;;7.22;2.17;;;;;;;7.68;91.14;102670.00;5033573;28;96542;-35
2022/01/29 04:46:29;;;;;;;3.03;1.75;;;;;;;7.67;91.39;102671.78;5035597;27;96748;-36
2022/01/29 04:48:54;;;;;;;4.15;2.00;;;;;;;7.66;91.49;102670.91;5034704;27;97837;-36
2022/01/29 04:51:20;;;;;;;3.50;1.52;;;;;;;7.58;91.10;102648.59;5032023;28;122515;-36
2022/01/29 04:53:46;;;;;;;2.67;1.42;;;;;;;7.66;91.66;102652.03;5034355;28;96492;-36
2022/01/29 04:56:11;;;;;;;3.85;1.52;;;;;;;7.61;91.50;102635.06;5033417;28;96820;-36
2022/01/29 04:58:37;;;;;;;4.32;1.38;;;;;;;7.62;91.48;102633.25;5033780;28;115656;-35
2022/01/29 05:01:03;;;;;;;4.07;1.52;;;;;;;7.68;91.30;102643.03;5034585;27;97858;-36
2022/01/29 05:03:29;;;;;;;1.90;1.40;;;;;;;7.71;91.63;102642.97;5034515;28;96730;-36
2022/01/29 05:05:55;;;;;;;4.53;2.05;;;;;;;7.72;91.35;102651.00;5034493;27;96643;-36
2022/01/29 05:08:20;;;;;;;2.40;1.58;;;;;;;7.75;91.35;102647.38;5034408;27;97829;-36
2022/01/29 05:10:45;;;;;;;3.90;1.55;;;;;;;7.70;91.34;102633.06;5034671;27;97835;-35
2022/01/29 05:13:14;;;;;;;2.33;1.75;;;;;;;7.76;91.67;102650.03;5034671;27;96650;-36
2022/01/29 05:26:51;;;;;;;3.40;1.95;;;;;;;7.68;91.30;102622.34;5034310;28;96617;-36
2022/01/29 05:29:17;;;;;;;2.38;1.17;;;;;;;7.71;91.52;102629.47;5034346;27;97921;-35
2022/01/29 05:31:43;;;;;;;3.67;1.48;;;;;;;7.76;91.22;102630.25;5032592;28;100961;-36
2022/01/29 05:34:09;;;;;;;6.53;1.27;;;;;;;7.77;91.32;102641.03;5034501;27;96444;-35
2022/01/29 05:36:34;;;;;;;3.67;1.67;;;;;;;7.81;91.12;102649.94;5034861;27;96731;-36
2022/01/29 05:39:00;;;;;;;2.65;1.33;;;;;;;7.84;91.05;102649.84;5033967;27;97484;-36
2022/01/29 05:41:25;;;;;;;2.50;1.23;;;;;;;7.76;91.04;102638.34;5033717;27;101771;-36
2022/01/29 05:43:51;;;;;;;3.70;1.33;;;;;;;7.71;91.33;102633.06;5033713;28;96777;-36
2022/01/29 05:46:17;;;;;;;5.80;0.88;;;;;;;7.74;91.37;102632.09;5033887;27;100912;-36
2022/01/29 05:48:43;;;;;;;1.67;1.30;;;;;;;7.88;91.27;102652.47;5035571;28;99248;-35
2022/01/29 05:51:09;;;;;;;15.32;1.60;;;;;;;7.88;91.04;102649.75;5035720;28;100850;-36
2022/01/29 05:53:35;;;;;;;2.03;1.27;;;;;;;7.88;91.24;102644.38;5036045;28;96945;-36
2022/01/29 05:56:01;;;;;;;5.53;1.45;;;;;;;7.77;91.58;102623.94;5036044;28;96870;-36
2022/01/29 05:58:27;;;;;;;2.85;1.35;;;;;;;7.87;91.00;102641.72;5035431;28;100792;-36
2022/01/29 06:00:52;;;;;;;4.22;1.80;;;;;;;7.80;91.03;102613.97;5036047;28;101771;-36
2022/01/29 06:03:17;;;;;;;3.15;1.70;;;;;;;7.94;91.09;102632.56;5037083;27;103073;-36
2022/01/29 06:05:43;;;;;;;2.88;1.58;;;;;;;7.96;91.00;102637.91;5036553;28;105251;-36
2022/01/29 06:08:08;;;;;;;6.18;2.30;;;;;;;7.84;91.11;102621.09;5036637;27;97928;-36
2022/01/29 06:10:35;;;;;;;2.63;1.40;;;;;;;7.87;91.22;102617.44;5037514;27;96569;-35
2022/01/29 06:13:04;;;;;;;1.88;1.13;;;;;;;7.96;91.85;102632.50;5037328;27;96589;-36
2022/01/29 06:15:34;;;;;;;2.58;1.75;;;;;;;7.98;91.12;102628.84;5035884;28;96818;-36
2022/01/29 06:18:00;;;;;;;4.07;1.35;;;;;;;7.90;91.25;102614.66;5037072;27;97888;-35
2022/01/29 06:20:26;;;;;;;2.67;1.10;;;;;;;7.99;91.28;102621.69;5036317;27;116933;-36
2022/01/29 06:22:52;;;;;;;6.30;1.58;;;;;;;7.97;91.17;102615.41;5035604;28;96669;-36
2022/01/29 06:25:18;;;;;;;5.00;1.55;;;;;;;7.98;91.00;102623.47;5037224;28;96772;-36
2022/01/29 06:27:43;;;;;;;3.15;1.67;;;;;;;7.86;91.38;102596.75;5018522;28;100734;-36
2022/01/29 06:30:09;;;;;;;6.88;1.90;;;;;;;7.98;91.30;102612.66;5036726;27;97867;-36
2022/01/29 06:32:34;;;;;;;7.78;3.40;;;;;;;7.80;91.00;102581.59;5036329;27;96514;-36
2022/01/29 06:34:59;;;;;;;2.70;1.50;;;;;;;8.01;91.62;102603.66;5036331;28;105129;-36
2022/01/29 06:37:24;;;;;;;1.70;1.30;;;;;;;8.01;91.09;102607.22;5034478;28;108013;-36
2022/01/29 06:39:50;;;;;;;8.23;2.38;;;;;;;8.01;90.91;102606.34;5035939;28;118847;-36
2022/01/29 06:42:15;;;;;;;3.28;1.15;;;;;;;8.05;90.67;102602.63;5036882;28;96456;-36
2022/01/29 06:44:40;;;;;;;4.20;1.60;;;;;;;8.01;91.25;102599.13;5036208;28;116635;-36
2022/01/29 06:47:06;;;;;;;3.35;1.55;;;;;;;7.95;91.37;102590.28;5036449;27;97949;-36
2022/01/29 06:49:31;;;;;;;4.65;1.73;;;;;;;7.93;91.18;102581.31;5036828;27;97778;-36
2022/01/29 06:51:57;;;;;;;4.95;1.75;;;;;;;7.94;91.22;102580.44;5036672;27;96708;-36
2022/01/29 06:54:22;;;;;;;4.53;1.55;;;;;;;8.03;91.26;102578.41;5018297;28;96824;-36
2022/01/29 06:56:47;;;;;;;3.08;1.70;;;;;;;8.03;91.15;102589.19;5034319;28;98850;-36
2022/01/29 06:59:13;;;;;;;10.25;2.10;;;;;;;8.04;91.12;102587.38;5034702;27;114559;-36
2022/01/29 07:01:38;;;;;;;12.43;1.48;;;;;;;8.06;91.14;102580.13;5035572;28;115287;-36
2022/01/29 07:04:03;;;;;;;1.58;1.27;;;;;;;8.05;91.54;102583.75;5035920;28;96700;-35
2022/01/29 07:06:29;;;;;;;9.30;1.25;;;;;;;8.07;91.30;102581.91;5035661;27;97526;-36
2022/01/29 07:08:54;;;;;;;3.42;1.02;;;;;;;8.06;91.13;102575.63;5036197;27;97735;-35
2022/01/29 07:11:23;;;;;;;1.27;0.90;;;;;;;8.07;91.41;102577.38;5036420;27;96589;-36
2022/01/29 07:13:55;;;;;;;2.38;1.23;;;;;;;8.12;91.34;102590.78;5036439;27;96868;-36
2022/01/29 07:16:20;;;;;;;2.20;1.27;;;;;;;8.08;91.48;102581.88;5036076;27;97919;-35
2022/01/29 07:18:45;;;;;;;4.30;1.15;;;;;;;8.12;91.24;102590.78;5034992;28;126900;-36
2022/01/29 07:21:10;;;;;;;11.00;1.27;;;;;;;8.02;91.40;102568.50;5034889;28;112638;-36
2022/01/29 07:23:36;;;;;;;2.35;1.38;;;;;;;8.13;91.18;102589.88;5035557;28;109876;-36
2022/01/29 07:26:01;;;;;;;4.88;1.30;;;;;;;8.11;91.23;102580.03;5035944;28;106368;-36
2022/01/29 07:28:26;;;;;;;8.63;2.33;;;;;;;8.02;91.15;102563.13;5035779;28;101991;-36
2022/01/29 07:30:52;;;;;;;2.72;1.35;;;;;;;8.11;91.35;102582.72;5033650;28;117993;-36
2022/01/29 07:33:17;;;;;;;1.83;1.17;;;;;;;8.08;91.34;102570.19;5035794;27;96756;-36
2022/01/29 07:35:43;;;;;;;1.75;1.38;;;;;;;8.14;91.67;102579.94;5035944;28;100181;-36
2022/01/29 07:38:08;;;;;;;5.13;1.25;;;;;;;8.14;91.57;102574.56;5034413;28;100873;-36
2022/01/29 07:40:34;;;;;;;6.72;2.10;;;;;;;8.17;91.82;102558.28;5035888;27;97138;-36
2022/01/29 07:42:59;;;;;;;13.70;1.88;;;;;;;7.98;91.73;102520.94;5035409;28;113964;-36
2022/01/29 07:45:24;;;;;;;5.45;1.58;;;;;;;8.17;91.63;102552.88;5034698;28;110412;-35
2022/01/29 07:47:50;;;;;;;2.72;1.13;;;;;;;8.20;91.87;102544.69;5035373;28;97850;-36
2022/01/29 07:50:15;;;;;;;7.05;1.33;;;;;;;8.18;92.13;102549.28;5035846;27;96601;-36
2022/01/29 07:52:40;;;;;;;8.68;1.60;;;;;;;8.20;92.11;102547.41;5035136;28;113334;-36
2022/01/29 07:55:07;;;;;;;2.85;1.55;;;;;;;8.21;91.61;102543.78;5034740;28;115521;-36
2022/01/29 07:57:33;;;;;;;5.68;2.03;;;;;;;8.26;91.58;102550.84;5033504;28;100919;-36
2022/01/29 07:59:58;;;;;;;2.75;1.75;;;;;;;8.28;91.67;102551.69;5035611;28;96469;-36
2022/01/29 08:02:23;;;;;;;3.88;1.10;;;;;;;8.18;91.72;102522.28;5034919;28;116811;-35
2022/01/29 08:04:48;;;;;;;6.97;1.33;;;;;;;8.13;91.56;102507.97;5034339;28;112251;-36
2022/01/29 08:07:14;;;;;;;5.25;1.75;;;;;;;8.30;91.82;102533.66;5034250;28;126765;-36
2022/01/29 08:09:39;;;;;;;2.20;1.05;;;;;;;8.29;91.64;102525.56;5033529;28;118113;-36
2022/01/29 08:12:05;;;;;;;3.40;1.13;;;;;;;8.20;91.37;102515.00;5034763;28;104724;-35
2022/01/29 08:14:30;;;;;;;3.83;1.02;;;;;;;8.36;91.25;102532.59;5034969;28;97855;-36
2022/01/29 08:16:55;;;;;;;6.00;1.35;;;;;;;8.31;91.79;102518.34;5035095;28;97872;-36
2022/01/29 08:19:20;;;;;;;3.60;1.75;;;;;;;8.25;91.27;102494.22;5035548;27;96461;-36
2022/01/29 08:21:46;;;;;;;7.18;1.42;;;;;;;8.35;91.49;102503.84;5033959;28;117021;-35
2022/01/29 08:24:11;;;;;;;7.65;1.85;;;;;;;8.40;91.46;102512.75;5034077;28;124334;-36
2022/01/29 08:26:36;;;;;;;6.07;1.38;;;;;;;8.45;91.20;102523.41;5034499;28;119714;-36
2022/01/29 08:29:02;;;;;;;4.63;1.48;;;;;;;8.33;91.61;102497.59;5035264;27;96452;-35
2022/01/29 08:31:27;;;;;;;2.67;1.17;;;;;;;8.33;91.52;102500.28;5035257;27;96721;-35
2022/01/29 08:33:53;;;;;;;4.72;0.98;;;;;;;8.34;91.34;102501.16;5034299;27;97385;-35
2022/01/29 08:36:18;;;;;;;4.22;1.52;;;;;;;8.44;91.49;102527.94;5034565;27;97901;-36
2022/01/29 08:38:43;;;;;;;3.95;1.13;;;;;;;8.41;91.48;102519.03;5034719;28;100357;-36
2022/01/29 08:41:09;;;;;;;8.65;1.42;;;;;;;8.43;91.45;102525.28;5032453;28;117627;-36
2022/01/29 08:43:34;;;;;;;6.45;1.77;;;;;;;8.40;90.97;102507.34;5034771;27;97372;-36
2022/01/29 08:46:00;;;;;;;2.28;0.90;;;;;;;8.43;91.43;102517.16;5033821;28;123897;-36
2022/01/29 08:48:25;;;;;;;3.25;1.17;;;;;;;8.28;91.24;102507.63;5034760;27;96600;-36
2022/01/29 08:50:51;;;;;;;3.15;0.88;;;;;;;8.29;91.53;102495.88;5035121;27;96790;-36
2022/01/29 08:53:19;;;;;;;2.15;1.02;;;;;;;8.38;91.31;102525.34;5032907;28;97909;-35
2022/01/29 08:55:44;;;;;;;4.57;1.15;;;;;;;8.38;91.27;102503.75;5034444;28;97484;-35
2022/01/29 08:58:09;;;;;;;1.15;0.73;;;;;;;8.30;91.57;102484.16;5033918;28;96891;-36
2022/01/29 09:00:37;;;;;;;2.78;0.98;;;;;;;8.40;91.35;102501.06;5034935;27;96761;-36
2022/01/29 09:03:04;;;;;;;8.15;2.08;;;;;;;8.37;91.37;102496.59;5034423;28;97347;-35
2022/01/29 09:05:29;;;;;;;5.15;1.85;;;;;;;8.41;90.92;102497.41;5033951;28;98020;-35
2022/01/29 09:07:54;;;;;;;4.10;1.10;;;;;;;8.25;91.24;102462.69;5034733;28;96461;-36
2022/01/29 09:10:20;;;;;;;2.70;1.05;;;;;;;8.37;91.18;102490.31;5033116;28;96758;-35
2022/01/29 09:12:45;;;;;;;1.17;0.80;;;;;;;8.39;91.11;102497.44;5034271;27;97912;-36
2022/01/29 09:15:11;;;;;;;10.93;1.80;;;;;;;8.28;91.04;102477.94;5034284;28;99741;-36
2022/01/29 09:17:39;;;;;;;11.52;1.88;;;;;;;8.26;91.16;102467.16;5034711;28;96647;-36
2022/01/29 09:20:06;;;;;;;5.45;0.80;;;;;;;8.45;90.99;102482.91;5032962;28;96843;-36
2022/01/29 09:22:31;;;;;;;1.75;0.98;;;;;;;8.38;90.85;102465.94;5033974;27;100767;-35
2022/01/29 09:24:57;;;;;;;4.03;1.38;;;;;;;8.42;90.80;102481.19;5037190;28;113991;-35
2022/01/29 09:27:22;;;;;;;1.98;0.77;;;;;;;8.41;90.57;102471.28;5038057;28;96576;-36
2022/01/29 09:29:47;;;;;;;2.08;0.88;;;;;;;8.42;90.73;102461.41;5037106;28;114251;-35
2022/01/29 09:32:12;;;;;;;3.00;0.90;;;;;;;8.45;90.28;102456.78;5036794;28;119121;-36
2022/01/29 09:34:38;;;;;;;2.15;0.93;;;;;;;8.64;90.30;102489.59;5036591;28;117052;-36
2022/01/29 09:37:03;;;;;;;5.78;1.58;;;;;;;8.64;90.03;102473.38;5037606;28;96968;-35
2022/01/29 09:39:28;;;;;;;2.25;1.15;;;;;;;8.74;90.00;102479.41;5038365;27;96763;-35
2022/01/29 09:41:55;;;;;;;1.25;0.52;;;;;;;8.78;89.58;102472.13;5037471;27;97867;-36
2022/01/29 09:44:21;;;;;;;1.45;0.65;;;;;;;8.63;90.17;102419.44;5037386;28;97809;-35
2022/01/29 09:46:52;;;;;;;3.08;1.08;;;;;;;8.89;89.47;102454.69;5035634;28;96657;-36
2022/01/29 09:49:18;;;;;;;2.20;0.80;;;;;;;8.98;89.38;102464.31;5037716;27;96636;-35
2022/01/29 09:51:43;;;;;;;1.83;1.05;;;;;;;9.02;89.11;102439.00;5037512;28;97951;-36
2022/01/29 09:54:09;;;;;;;5.63;0.75;;;;;;;9.22;88.84;102468.13;5037163;28;97368;-36
2022/01/29 09:56:35;;;;;;;2.63;0.70;;;;;;;9.30;88.50;102444.47;5037711;28;96429;-36
2022/01/29 09:59:01;;;;;;;2.22;1.05;;;;;;;9.30;88.19;102414.72;5037501;27;96754;-36
2022/01/29 10:01:27;;;;;;;0.98;0.63;;;;;;;9.59;87.61;102436.38;5037121;27;97979;-36
2022/01/29 10:04:04;;;;;;;6.10;1.08;;;;;;;9.63;87.55;102417.28;5036867;28;97435;-35
2022/01/29 10:06:30;;;;;;;2.05;0.90;;;;;;;9.77;86.71;102409.63;5037061;27;96800;-36
2022/01/29 10:08:56;;;;;;;6.53;1.00;;;;;;;9.86;86.54;102399.41;5037365;27;96720;-36
2022/01/29 10:11:24;;;;;;;0.68;0.47;;;;;;;10.03;85.96;102425.91;5036371;27;99276;-36
2022/01/29 10:13:50;;;;;;;4.57;0.93;;;;;;;10.19;85.50;102435.28;5035334;28;102431;-36
2022/01/29 10:16:21;;;;;;;2.42;0.77;;;;;;;10.02;85.45;102414.19;5037237;27;96630;-36
2022/01/29 10:19:01;;;;;;;3.10;0.43;;;;;;;10.17;85.55;102438.00;5035680;28;96740;-35
2022/01/29 10:21:30;;;;;;;2.00;0.60;;;;;;;10.14;85.20;102427.31;5035333;28;100739;-35
2022/01/29 10:24:03;;;;;;;2.05;0.75;;;;;;;10.32;84.47;102460.13;5035423;28;100782;-36
2022/01/29 10:26:37;;;;;;;1.10;0.68;;;;;;;10.40;84.35;102463.47;5035502;28;96573;-36
2022/01/29 10:29:07;;;;;;;5.60;1.05;;;;;;;10.50;85.08;102455.91;5037678;28;96513;-36
2022/01/29 10:31:46;;;;;;;1.33;0.73;;;;;;;10.59;84.59;102469.13;5035151;28;101158;-36
2022/01/29 10:34:32;;;;;;;3.78;1.25;;;;;;;10.41;83.54;102432.72;5034998;27;98969;-36
2022/01/29 10:37:18;;;;;;;4.43;1.02;;;;;;;10.47;84.40;102442.47;5034693;28;96648;-35
2022/01/29 10:39:55;;;;;;;2.70;1.00;;;;;;;10.43;84.34;102435.38;5035338;28;96907;-36
2022/01/29 10:42:26;;;;;;;3.70;0.93;;;;;;;10.37;84.35;102434.66;5022221;28;98032;-35
2022/01/29 10:44:55;;;;;;;9.82;0.95;;;;;;;10.28;84.54;102410.63;4994753;28;100879;-35
2022/01/29 10:47:20;;;;;;;4.28;0.70;;;;;;;10.16;84.30;102392.94;4996292;28;96618;-36
2022/01/29 10:49:55;;;;;;;2.22;0.52;;;;;;;10.33;84.00;102426.69;4996500;28;96695;-35
2022/01/29 10:52:32;;;;;;;2.75;0.90;;;;;;;10.28;84.15;102423.25;5010138;28;98152;-35
2022/01/29 10:55:01;;;;;;;7.47;0.60;;;;;;;10.31;84.39;102406.91;5014708;28;100999;-35
2022/01/29 10:57:46;;;;;;;7.95;1.23;;;;;;;10.18;84.40;102403.72;5015169;28;96590;-35
2022/01/29 11:00:23;;;;;;;7.38;1.15;;;;;;;10.46;84.38;102413.59;5015643;28;96981;-36
2022/01/29 11:02:51;;;;;;;4.72;0.95;;;;;;;10.54;83.93;102419.66;5015268;28;98006;-35
2022/01/29 11:05:18;;;;;;;2.17;0.85;;;;;;;10.44;83.55;102382.97;5013719;28;100718;-35
2022/01/29 11:07:51;;;;;;;5.43;0.73;;;;;;;10.27;83.53;102364.59;5016095;28;96578;-36
2022/01/29 11:10:18;;;;;;;3.50;0.73;;;;;;;10.34;84.34;102383.28;5015989;28;96680;-36
2022/01/29 11:12:45;;;;;;;6.70;1.58;;;;;;;10.18;83.92;102365.81;5014365;28;100763;-36
2022/01/29 11:15:11;;;;;;;7.18;0.88;;;;;;;10.04;84.09;102352.75;5015840;28;97209;-36
2022/01/29 11:17:37;;;;;;;2.42;0.90;;;;;;;10.12;84.54;102366.91;5014544;28;96619;-35
2022/01/29 11:20:04;;;;;;;9.27;0.82;;;;;;;10.21;84.11;102368.41;5016622;28;96926;-35
2022/01/29 11:22:35;;;;;;;14.15;0.88;;;;;;;10.13;83.59;102355.16;5015396;28;98854;-36
2022/01/29 11:25:06;;;;;;;5.47;1.10;;;;;;;10.19;84.20;102349.50;5015815;28;97951;-36
2022/01/29 11:27:33;;;;;;;3.90;0.90;;;;;;;10.06;84.23;102356.31;4997460;28;96661;-36
2022/01/29 11:30:02;;;;;;;2.97;0.32;;;;;;;10.23;84.36;102366.53;5014651;28;96834;-36
2022/01/29 11:32:34;;;;;;;8.93;0.75;;;;;;;10.28;84.17;102367.28;5015606;28;97995;-36
2022/01/29 11:35:19;;;;;;;1.85;0.95;;;;;;;10.24;84.02;102367.41;5015290;28;97469;-35
2022/01/29 11:37:51;;;;;;;1.48;0.50;;;;;;;10.17;84.20;102340.53;5015989;28;96501;-35
2022/01/29 11:40:28;;;;;;;2.72;0.73;;;;;;;10.18;84.23;102357.69;5015659;28;96782;-36
2022/01/29 11:43:06;;;;;;;5.13;0.70;;;;;;;10.06;84.33;102340.06;5014035;28;101299;-35